sensor_id;sensor_type;location;lat;lon;timestamp;P1;P2;P0
62981;PMS5003;49075;53.988;27.678;2024-03-08T19:39:36;30;30;24
62981;PMS5003;49075;53.988;27.678;2024-03-08T19:44:48;40;37;27
62981;PMS5003;49075;53.988;27.678;2024-03-08T19:49:26;41.4;38.2;28.4
62981;PMS5003;49075;53.988;27.678;2024-03-08T19:54:54;44.3;39.5;29.3
62981;PMS5003;49075;53.988;27.678;2024-03-08T20:00:19;43.6;40.2;29.2
62981;PMS5003;49075;53.988;27.678;2024-03-08T20:04:34;43.6;40.2;29.2
62981;PMS5003;49075;53.988;27.678;2024-03-08T20:09:26;43.2;39.6;29.8
62981;PMS5003;49075;53.988;27.678;2024-03-08T20:14:34;49;42.6;30.6
62981;PMS5003;49075;53.988;27.678;2024-03-08T20:19:39;51.4;45;32.6
62981;PMS5003;49075;53.988;27.678;2024-03-08T20:25:07;54.3;46.3;32.7
62981;PMS5003;49075;53.988;27.678;2024-03-08T20:34:56;49.7;43.3;31.3
62981;PMS5003;49075;53.988;27.678;2024-03-08T20:39:46;48.4;43;32.6
62981;PMS5003;49075;53.988;27.678;2024-03-08T20:44:36;45;40.2;30.6
62981;PMS5003;49075;53.988;27.678;2024-03-08T20:49:52;42.2;39.2;28.6
62981;PMS5003;49075;53.988;27.678;2024-03-08T20:54:44;47.3;42.8;30.5
62981;PMS5003;49075;53.988;27.678;2024-03-08T20:59:44;45;41.3;28.5
62981;PMS5003;49075;53.988;27.678;2024-03-08T21:29:26;54;46;31
62981;PMS5003;49075;53.988;27.678;2024-03-08T21:34:26;44.5;40;30
62981;PMS5003;49075;53.988;27.678;2024-03-08T21:39:26;46;41.5;28.8
62981;PMS5003;49075;53.988;27.678;2024-03-08T21:44:44;42;39;27.4
62981;PMS5003;49075;53.988;27.678;2024-03-08T21:49:26;38.8;35.8;26.8
62981;PMS5003;49075;53.988;27.678;2024-03-08T21:54:42;47.2;42.8;31.2
62981;PMS5003;49075;53.988;27.678;2024-03-08T21:59:48;41.4;38;28.2
62981;PMS5003;49075;53.988;27.678;2024-03-08T22:04:26;43.4;40.6;30.2
62981;PMS5003;49075;53.988;27.678;2024-03-08T22:10:19;45;41.2;31.8
62981;PMS5003;49075;53.988;27.678;2024-03-08T22:14:36;45;41.2;31.8
62981;PMS5003;49075;53.988;27.678;2024-03-08T22:19:26;47.4;43;33
62981;PMS5003;49075;53.988;27.678;2024-03-08T22:24:26;45;42;30.8
62981;PMS5003;49075;53.988;27.678;2024-03-08T22:29:26;45.6;41.8;31
62981;PMS5003;49075;53.988;27.678;2024-03-08T22:34:44;41;38.8;29.5
62981;PMS5003;49075;53.988;27.678;2024-03-08T22:39:26;45.4;41.8;29.8
62981;PMS5003;49075;53.988;27.678;2024-03-08T22:44:44;50.6;43.6;31.2
62981;PMS5003;49075;53.988;27.678;2024-03-08T22:49:26;52.2;45;31.8
62981;PMS5003;49075;53.988;27.678;2024-03-08T22:54:32;63;53.6;36.6
62981;PMS5003;49075;53.988;27.678;2024-03-08T22:59:38;66.8;55.6;37.6
62981;PMS5003;49075;53.988;27.678;2024-03-08T23:04:36;70;58.2;41
62981;PMS5003;49075;53.988;27.678;2024-03-08T23:09:34;65.2;55;39.4
62981;PMS5003;49075;53.988;27.678;2024-03-08T23:14:26;59.8;51;36.8
62981;PMS5003;49075;53.988;27.678;2024-03-08T23:19:26;50.8;45.2;30.6
62981;PMS5003;49075;53.988;27.678;2024-03-08T23:24:35;48;43.2;31
62981;PMS5003;49075;53.988;27.678;2024-03-08T23:29:34;49.8;44.5;31.5
62981;PMS5003;49075;53.988;27.678;2024-03-08T23:34:34;52.2;45.2;33
62981;PMS5003;49075;53.988;27.678;2024-03-08T23:39:54;42.8;40;28.8
62981;PMS5003;49075;53.988;27.678;2024-03-08T23:44:44;51.8;46;33
62981;PMS5003;49075;53.988;27.678;2024-03-08T23:54:47;44;41;29
